createdAt,value
2024-02-28T00:00:04.861Z,28.58
2024-02-28T00:03:17.921Z,25.50
2024-02-28T00:06:30.685Z,29.65
2024-02-28T00:09:43.099Z,28.92
2024-02-28T00:12:55.840Z,29.30
2024-02-28T00:16:08.313Z,27.10
2024-02-28T00:19:21.528Z,29.90
2024-02-28T00:22:33.970Z,31.20
2024-02-28T00:25:47.094Z,23.98
2024-02-28T00:28:59.478Z,26.90
2024-02-28T00:32:12.134Z,27.25
2024-02-28T00:35:24.562Z,33.20
2024-02-28T00:38:37.205Z,28.62
2024-02-28T00:41:49.665Z,27.08
2024-02-28T00:45:02.446Z,26.45
2024-02-28T00:48:15.306Z,25.42
2024-02-28T00:51:28.035Z,25.23
2024-02-28T00:54:41.574Z,25.15
2024-02-28T00:57:54.351Z,23.62
2024-02-28T01:01:06.881Z,25.42
2024-02-28T01:04:19.623Z,23.08
2024-02-28T01:07:31.982Z,26.98
2024-02-28T01:10:45.434Z,23.73
2024-02-28T01:13:57.859Z,24.52
2024-02-28T01:17:10.526Z,23.75
2024-02-28T01:20:22.912Z,25.50
2024-02-28T01:23:35.589Z,24.23
2024-02-28T01:26:47.980Z,25.73
2024-02-28T01:30:00.749Z,21.83
2024-02-28T01:33:15.049Z,27.75
2024-02-28T01:36:27.969Z,24.95
2024-02-28T01:39:40.491Z,24.63
2024-02-28T01:42:53.189Z,19.77
2024-02-28T01:46:23.377Z,22.33
2024-02-28T01:49:35.989Z,24.00
2024-02-28T01:52:48.390Z,24.12
2024-02-28T01:56:01.106Z,29.37
2024-02-28T01:59:13.805Z,23.50
2024-02-28T02:02:26.426Z,23.65
2024-02-28T02:05:39.141Z,25.90
2024-02-28T02:08:51.509Z,23.38
2024-02-28T02:12:04.235Z,21.87
2024-02-28T02:15:16.755Z,24.52
2024-02-28T02:18:29.635Z,23.87
2024-02-28T02:21:54.480Z,22.17
2024-02-28T02:25:07.728Z,25.20
2024-02-28T02:28:20.112Z,25.88
2024-02-28T02:31:32.835Z,22.33
2024-02-28T02:34:45.216Z,24.50
2024-02-28T02:37:57.888Z,21.95
2024-02-28T02:41:10.347Z,25.55
2024-02-28T02:44:23.192Z,23.80
2024-02-28T02:47:36.538Z,29.77
2024-02-28T02:50:49.220Z,24.67
2024-02-28T02:54:01.632Z,29.27
2024-02-28T02:57:14.321Z,27.70
2024-02-28T03:00:26.871Z,23.65
2024-02-28T03:03:39.715Z,25.92
2024-02-28T03:06:52.200Z,25.75
2024-02-28T03:10:05.351Z,26.55
2024-02-28T03:13:17.866Z,27.30
2024-02-28T03:16:30.533Z,26.12
2024-02-28T03:19:43.336Z,26.02
2024-02-28T03:22:56.012Z,23.80
2024-02-28T03:26:08.449Z,21.62
2024-02-28T03:29:21.812Z,20.00
2024-02-28T03:32:34.221Z,21.20
2024-02-28T03:35:46.902Z,25.25
2024-02-28T03:38:59.326Z,22.48
2024-02-28T03:42:12.021Z,21.62
2024-02-28T03:45:24.475Z,20.73
2024-02-28T03:48:37.216Z,22.92
2024-02-28T03:51:49.653Z,18.85
2024-02-28T03:55:02.359Z,20.92
2024-02-28T03:58:14.803Z,19.80
2024-02-28T04:01:27.556Z,19.75
2024-02-28T04:04:40.274Z,22.48
2024-02-28T04:07:52.747Z,19.62
2024-02-28T04:11:05.471Z,22.15
2024-02-28T04:14:17.953Z,19.30
2024-02-28T04:17:30.695Z,20.92
2024-02-28T04:20:43.076Z,22.77
2024-02-28T04:23:56.134Z,19.85
2024-02-28T04:27:11.225Z,21.92
2024-02-28T04:30:24.071Z,21.00
2024-02-28T04:33:37.277Z,17.25
2024-02-28T04:36:50.008Z,22.90
2024-02-28T04:40:03.205Z,19.67
2024-02-28T04:43:16.436Z,18.92
2024-02-28T04:46:28.811Z,22.30
2024-02-28T04:49:41.457Z,21.08
2024-02-28T04:52:53.839Z,19.27
2024-02-28T04:56:07.897Z,21.42
2024-02-28T04:59:20.286Z,20.15
2024-02-28T05:02:32.931Z,18.83
2024-02-28T05:05:45.338Z,19.83
2024-02-28T05:08:58.113Z,18.15
2024-02-28T05:12:10.632Z,19.15
2024-02-28T05:15:24.067Z,18.30
2024-02-28T05:18:36.557Z,21.67
2024-02-28T05:21:52.248Z,23.40
2024-02-28T05:25:05.146Z,23.73
2024-02-28T05:28:17.964Z,19.62
2024-02-28T05:31:30.464Z,22.50
2024-02-28T05:34:43.167Z,23.02
2024-02-28T05:37:58.335Z,23.38
2024-02-28T05:41:11.045Z,24.75
2024-02-28T05:44:23.572Z,18.55
2024-02-28T05:47:37.917Z,18.42
2024-02-28T05:50:50.369Z,19.30
2024-02-28T05:54:03.441Z,21.62
2024-02-28T05:57:15.850Z,19.20
2024-02-28T06:00:29.256Z,22.30
2024-02-28T06:03:41.962Z,20.50
2024-02-28T06:06:54.548Z,28.48
2024-02-28T06:10:07.593Z,22.02
2024-02-28T06:13:20.210Z,20.50
2024-02-28T06:16:32.968Z,17.75
2024-02-28T06:19:45.439Z,20.95
2024-02-28T06:22:58.753Z,21.98
2024-02-28T06:26:17.637Z,21.83
2024-02-28T06:29:30.575Z,18.70
2024-02-28T06:32:43.096Z,27.00
2024-02-28T06:35:55.897Z,58.47
2024-02-28T06:39:08.557Z,56.83
2024-02-28T06:42:21.558Z,41.53
2024-02-28T06:45:34.138Z,56.80
2024-02-28T06:48:46.964Z,47.97
2024-02-28T06:52:02.374Z,61.03
2024-02-28T06:55:15.621Z,52.08
2024-02-28T06:58:28.192Z,49.50
2024-02-28T07:01:41.104Z,69.70
2024-02-28T07:04:54.316Z,57.33
2024-02-28T07:08:12.026Z,47.80
2024-02-28T07:11:24.485Z,42.92
2024-02-28T07:14:38.087Z,66.95
2024-02-28T07:17:50.571Z,85.50
2024-02-28T07:21:07.894Z,66.07
2024-02-28T07:24:20.270Z,59.85
2024-02-28T07:27:33.082Z,53.47
2024-02-28T07:30:46.982Z,43.70
2024-02-28T07:33:59.898Z,65.62
2024-02-28T07:37:13.361Z,80.38
2024-02-28T07:40:26.159Z,69.20
2024-02-28T07:43:39.174Z,45.40
2024-02-28T07:46:52.419Z,34.35
2024-02-28T07:50:05.305Z,36.45
2024-02-28T07:53:21.122Z,32.10
2024-02-28T07:56:33.493Z,31.37
2024-02-28T07:59:46.212Z,27.73
2024-02-28T08:02:58.616Z,43.67
2024-02-28T08:06:11.917Z,51.63
2024-02-28T08:09:24.511Z,24.33
2024-02-28T08:12:38.076Z,25.92
2024-02-28T08:15:50.558Z,30.40
2024-02-28T08:19:03.397Z,26.23
2024-02-28T08:22:15.836Z,30.17
2024-02-28T08:25:28.538Z,23.15
2024-02-28T08:28:41.036Z,21.05
2024-02-28T08:31:53.802Z,17.90
2024-02-28T08:35:09.264Z,17.62
2024-02-28T08:38:22.136Z,25.33
2024-02-28T08:41:35.009Z,23.58
2024-02-28T08:44:49.225Z,24.98
2024-02-28T08:48:03.692Z,29.92
2024-02-28T08:51:16.477Z,22.95
2024-02-28T08:54:29.159Z,29.05
2024-02-28T08:57:42.026Z,22.37
2024-02-28T09:00:55.530Z,22.52
2024-02-28T09:04:11.329Z,21.40
2024-02-28T09:07:23.825Z,29.90
2024-02-28T09:10:37.109Z,24.50
2024-02-28T09:13:52.457Z,20.80
2024-02-28T09:17:05.522Z,20.27
2024-02-28T09:20:18.306Z,24.90
2024-02-28T09:23:33.917Z,22.95
2024-02-28T09:26:46.312Z,22.73
2024-02-28T09:29:58.992Z,22.33
2024-02-28T09:33:11.491Z,23.00
2024-02-28T09:36:24.256Z,24.27
2024-02-28T09:39:40.403Z,24.90
2024-02-28T09:42:59.368Z,22.87
2024-02-28T09:46:13.305Z,23.70
2024-02-28T09:49:27.907Z,25.48
2024-02-28T09:52:42.008Z,25.10
2024-02-28T09:55:54.835Z,20.40
2024-02-28T09:59:07.499Z,21.92
2024-02-28T10:02:22.688Z,22.98
2024-02-28T10:05:35.823Z,22.62
2024-02-28T10:08:51.860Z,26.20
2024-02-28T10:12:05.713Z,23.60
2024-02-28T10:15:18.181Z,29.35
2024-02-28T10:18:31.489Z,23.65
2024-02-28T10:21:44.041Z,23.52
2024-02-28T10:25:02.931Z,20.48
2024-02-28T10:28:16.059Z,23.42
2024-02-28T10:31:29.746Z,20.85
2024-02-28T10:34:42.207Z,22.05
2024-02-28T10:37:58.072Z,24.70
2024-02-28T10:41:16.182Z,22.40
2024-02-28T10:44:29.147Z,21.92
2024-02-28T10:47:42.426Z,23.40
2024-02-28T10:50:58.222Z,22.30
2024-02-28T10:54:15.248Z,26.02
2024-02-28T10:57:28.610Z,23.65
2024-02-28T11:00:48.482Z,22.08
2024-02-28T11:04:01.336Z,22.70
2024-02-28T11:07:23.019Z,21.60
2024-02-28T11:10:35.723Z,26.00
2024-02-28T11:13:58.615Z,21.52
2024-02-28T11:17:12.241Z,23.10
2024-02-28T11:20:32.536Z,20.62
2024-02-28T11:23:48.857Z,24.42
2024-02-28T11:27:01.352Z,22.20
2024-02-28T11:30:15.054Z,23.65
2024-02-28T11:33:30.758Z,21.20
2024-02-28T11:36:43.780Z,23.73
2024-02-28T11:39:56.577Z,25.83
2024-02-28T11:43:12.462Z,23.90
2024-02-28T11:46:27.234Z,22.00
2024-02-28T11:49:40.031Z,25.35
2024-02-28T11:52:52.474Z,18.92
2024-02-28T11:56:05.671Z,22.00
2024-02-28T11:59:19.521Z,23.10
2024-02-28T12:02:32.287Z,26.80
2024-02-28T12:05:45.757Z,32.10
2024-02-28T12:08:58.149Z,20.37
2024-02-28T12:12:10.831Z,20.20
2024-02-28T12:15:23.445Z,25.33
2024-02-28T12:18:36.349Z,33.88
2024-02-28T12:21:51.070Z,26.52
2024-02-28T12:25:05.819Z,30.75
2024-02-28T12:28:18.371Z,24.92
2024-02-28T12:31:31.074Z,21.48
2024-02-28T12:34:43.479Z,24.37
2024-02-28T12:37:56.223Z,24.58
2024-02-28T12:41:08.671Z,26.98
2024-02-28T12:44:21.383Z,25.30
2024-02-28T12:47:33.897Z,22.50
2024-02-28T12:50:46.558Z,21.90
2024-02-28T12:53:58.900Z,22.80
2024-02-28T12:57:14.118Z,23.10
2024-02-28T13:00:26.569Z,20.50
2024-02-28T13:03:39.338Z,25.52
2024-02-28T13:06:52.954Z,21.55
2024-02-28T13:10:06.657Z,27.70
2024-02-28T13:13:19.075Z,26.05
2024-02-28T13:16:33.363Z,23.25
2024-02-28T13:19:45.776Z,25.95
2024-02-28T13:23:00.561Z,22.45
2024-02-28T13:26:19.264Z,23.75
2024-02-28T13:29:33.385Z,27.52
2024-02-28T13:32:50.258Z,22.42
2024-02-28T13:36:03.495Z,21.30
2024-02-28T13:39:17.103Z,21.00
2024-02-28T13:42:29.814Z,20.98
2024-02-28T13:45:46.963Z,21.73
2024-02-28T13:48:59.794Z,19.40
2024-02-28T13:52:12.309Z,20.05
2024-02-28T13:55:25.190Z,20.65
2024-02-28T13:58:42.923Z,21.70
2024-02-28T14:02:01.940Z,23.62
2024-02-28T14:05:14.842Z,22.27
2024-02-28T14:08:35.138Z,20.67
2024-02-28T14:11:48.436Z,18.83
2024-02-28T14:15:02.325Z,19.42
2024-02-28T14:18:15.038Z,25.90
2024-02-28T14:21:27.543Z,21.02
2024-02-28T14:24:40.303Z,25.02
2024-02-28T14:27:52.699Z,24.92
2024-02-28T14:31:06.267Z,21.90
2024-02-28T14:34:18.736Z,21.17
2024-02-28T14:37:31.829Z,27.42
2024-02-28T14:40:44.287Z,24.90
2024-02-28T14:43:56.960Z,24.90
2024-02-28T14:47:09.342Z,26.95
2024-02-28T14:50:21.997Z,22.13
2024-02-28T14:53:34.439Z,25.15
2024-02-28T14:56:47.129Z,24.65
2024-02-28T14:59:59.513Z,24.92
2024-02-28T15:03:13.050Z,24.30
2024-02-28T15:06:25.837Z,22.27
2024-02-28T15:09:41.119Z,24.10
2024-02-28T15:12:53.987Z,19.92
2024-02-28T15:16:09.111Z,21.77
2024-02-28T15:19:21.548Z,26.52
2024-02-28T15:22:34.776Z,22.37
2024-02-28T15:25:48.797Z,21.77
2024-02-28T15:29:01.550Z,28.23
2024-02-28T15:32:14.005Z,22.55
2024-02-28T15:35:26.954Z,31.27
2024-02-28T15:38:39.387Z,25.12
2024-02-28T15:41:53.280Z,28.40
2024-02-28T15:45:06.984Z,24.85
2024-02-28T15:48:19.695Z,25.80
2024-02-28T15:51:33.044Z,46.67
2024-02-28T15:54:45.788Z,50.85
2024-02-28T15:57:58.188Z,51.37
2024-02-28T16:01:12.633Z,46.72
2024-02-28T16:04:25.374Z,39.40
2024-02-28T16:07:37.754Z,40.92
2024-02-28T16:10:50.452Z,53.58
2024-02-28T16:14:02.962Z,50.97
2024-02-28T16:17:17.292Z,45.95
2024-02-28T16:20:29.973Z,52.00
2024-02-28T16:23:42.837Z,59.05
2024-02-28T16:26:55.239Z,57.17
2024-02-28T16:30:09.509Z,50.70
2024-02-28T16:33:24.324Z,49.53
2024-02-28T16:36:37.037Z,49.83
2024-02-28T16:39:49.500Z,51.00
2024-02-28T16:43:02.321Z,51.78
2024-02-28T16:46:14.807Z,49.60
2024-02-28T16:49:27.535Z,44.85
2024-02-28T16:52:40.110Z,44.95
2024-02-28T16:55:52.855Z,51.47
2024-02-28T16:59:05.667Z,44.28
2024-02-28T17:02:18.626Z,49.38
2024-02-28T17:05:32.035Z,48.65
2024-02-28T17:08:45.134Z,47.53
2024-02-28T17:11:57.643Z,54.25
2024-02-28T17:15:10.938Z,70.57
2024-02-28T17:18:23.464Z,67.45
2024-02-28T17:21:36.840Z,56.75
2024-02-28T17:24:49.317Z,48.53
2024-02-28T17:28:02.197Z,55.30
2024-02-28T17:31:14.737Z,50.80
2024-02-28T17:34:27.396Z,44.40
2024-02-28T17:37:39.856Z,50.55
2024-02-28T17:40:52.559Z,49.13
2024-02-28T17:44:04.979Z,37.83
2024-02-28T17:47:19.628Z,37.70
2024-02-28T17:50:32.178Z,38.30
2024-02-28T17:53:44.846Z,38.80
2024-02-28T17:56:57.188Z,40.95
2024-02-28T18:00:13.810Z,47.15
2024-02-28T18:03:26.735Z,36.53
2024-02-28T18:06:39.315Z,38.50
2024-02-28T18:09:54.292Z,36.45
2024-02-28T18:13:08.117Z,36.67
2024-02-28T18:16:22.660Z,39.65
2024-02-28T18:19:35.127Z,36.10
2024-02-28T18:22:48.318Z,34.88
2024-02-28T18:26:00.765Z,40.95
2024-02-28T18:29:13.655Z,38.10
2024-02-28T18:32:26.167Z,35.85
2024-02-28T18:35:39.246Z,37.38
2024-02-28T18:38:51.636Z,41.08
2024-02-28T18:42:04.546Z,47.42
2024-02-28T18:45:17.585Z,52.47
2024-02-28T18:48:30.353Z,50.58
2024-02-28T18:51:42.896Z,47.72
2024-02-28T18:54:57.330Z,47.83
2024-02-28T18:58:10.479Z,49.20
2024-02-28T19:01:23.223Z,44.22
2024-02-28T19:04:37.365Z,40.72
2024-02-28T19:07:53.073Z,42.50
2024-02-28T19:11:05.768Z,53.05
2024-02-28T19:14:18.490Z,50.65
2024-02-28T19:17:30.990Z,43.55
2024-02-28T19:20:43.661Z,42.17
2024-02-28T19:23:56.333Z,50.90
2024-02-28T19:27:09.118Z,37.75
2024-02-28T19:30:21.534Z,39.15
2024-02-28T19:33:34.710Z,33.70
2024-02-28T19:36:47.365Z,44.25
2024-02-28T19:40:08.766Z,51.60
2024-02-28T19:43:21.290Z,50.97
2024-02-28T19:46:34.030Z,41.15
2024-02-28T19:49:46.408Z,42.35
2024-02-28T19:52:59.240Z,46.67
2024-02-28T19:56:12.112Z,36.58
2024-02-28T19:59:24.787Z,38.75
2024-02-28T20:02:37.154Z,40.05
2024-02-28T20:05:49.817Z,35.83
2024-02-28T20:09:03.052Z,38.75
2024-02-28T20:12:16.380Z,34.88
2024-02-28T20:15:28.980Z,34.35
2024-02-28T20:18:42.461Z,33.75
2024-02-28T20:21:56.498Z,39.88
2024-02-28T20:25:09.262Z,41.10
2024-02-28T20:28:23.329Z,39.53
2024-02-28T20:31:36.255Z,37.00
2024-02-28T20:34:48.638Z,38.55
2024-02-28T20:38:01.336Z,33.03
2024-02-28T20:41:13.896Z,37.08
2024-02-28T20:44:28.356Z,40.00
2024-02-28T20:47:40.752Z,39.75
2024-02-28T20:50:53.464Z,33.65
2024-02-28T20:54:06.058Z,35.53
2024-02-28T20:57:18.756Z,29.15
2024-02-28T21:00:31.180Z,35.70
2024-02-28T21:03:43.939Z,29.15
2024-02-28T21:06:56.701Z,34.05
2024-02-28T21:10:09.626Z,34.63
2024-02-28T21:13:22.943Z,53.35
2024-02-28T21:16:37.790Z,47.35
2024-02-28T21:19:50.336Z,43.70
2024-02-28T21:23:03.000Z,47.70
2024-02-28T21:26:15.392Z,47.70
2024-02-28T21:29:28.133Z,49.13
2024-02-28T21:32:42.150Z,43.78
2024-02-28T21:35:54.899Z,47.40
2024-02-28T21:39:10.059Z,45.47
2024-02-28T21:42:22.742Z,53.40
2024-02-28T21:45:35.221Z,42.50
2024-02-28T21:48:53.383Z,46.63
2024-02-28T21:52:11.666Z,42.45
2024-02-28T21:55:24.628Z,39.22
2024-02-28T21:58:37.020Z,40.28
2024-02-28T22:01:49.778Z,38.60
2024-02-28T22:05:02.518Z,44.17
2024-02-28T22:08:14.877Z,40.45
2024-02-28T22:11:27.633Z,40.38
2024-02-28T22:14:40.111Z,42.67
2024-02-28T22:17:54.528Z,45.58
2024-02-28T22:21:07.118Z,39.63
2024-02-28T22:24:19.873Z,40.12
2024-02-28T22:27:32.268Z,33.00
2024-02-28T22:30:44.990Z,33.97
2024-02-28T22:33:57.549Z,36.00
2024-02-28T22:37:10.298Z,37.67
2024-02-28T22:40:23.085Z,37.00
2024-02-28T22:43:36.448Z,36.63
2024-02-28T22:46:48.875Z,34.92
2024-02-28T22:50:01.646Z,41.92
2024-02-28T22:53:14.034Z,36.15
2024-02-28T22:56:26.788Z,36.03
2024-02-28T22:59:39.953Z,34.15
2024-02-28T23:02:52.958Z,34.95
2024-02-28T23:06:05.515Z,38.40
2024-02-28T23:09:18.208Z,34.20
2024-02-28T23:12:30.606Z,34.17
2024-02-28T23:15:44.388Z,33.92
2024-02-28T23:18:57.023Z,32.72
2024-02-28T23:22:10.235Z,31.62
2024-02-28T23:25:22.926Z,36.60
2024-02-28T23:28:36.190Z,34.63
2024-02-28T23:31:48.674Z,31.12
2024-02-28T23:35:01.301Z,37.53
2024-02-28T23:38:13.754Z,34.40
2024-02-28T23:41:26.530Z,29.75
2024-02-28T23:44:38.910Z,38.22
2024-02-28T23:47:51.593Z,37.60
2024-02-28T23:51:04.614Z,34.15
2024-02-28T23:54:17.278Z,41.55
2024-02-28T23:57:29.693Z,33.75
